Time;durP1;ratioP1;P1;durP2;ratioP2;P2;SDS_P1;SDS_P2;PMS_P1;PMS_P2;Temp;Humidity;BMP_temperature;BMP_pressure;BME280_temperature;BME280_humidity;BME280_pressure;Samples;Min_cycle;Max_cycle;Signal;HPM_P1;HPM_P2
2024/01/11 00:02:13;;;;;;;67.88;28.88;;;;;;;;;;5060216;28;20036;-85
2024/01/11 00:04:40;;;;;;;74.28;29.17;;;;;;;;;;5061683;28;20481;-86
2024/01/11 00:07:08;;;;;;;75.60;30.25;;;;;;;;;;5045328;28;20049;-86
2024/01/11 00:09:39;;;;;;;76.68;30.40;;;;;;;;;;5060556;28;20050;-86
2024/01/11 00:12:06;;;;;;;69.07;30.38;;;;;;;;;;5036647;28;20448;-86
2024/01/11 00:14:34;;;;;;;73.85;29.67;;;;;;;;;;5044777;28;20053;-86
2024/01/11 00:17:01;;;;;;;76.05;31.92;;;;;;;;;;5060473;28;20103;-86
2024/01/11 00:19:29;;;;;;;76.57;30.48;;;;;;;;;;5044837;28;20089;-86
2024/01/11 00:21:56;;;;;;;78.35;29.67;;;;;;;;;;5062876;28;20053;-86
2024/01/11 00:24:23;;;;;;;78.50;31.00;;;;;;;;;;5047203;28;20053;-85
2024/01/11 00:26:50;;;;;;;73.03;29.70;;;;;;;;;;5044992;28;20052;-86
2024/01/11 00:29:18;;;;;;;74.28;30.45;;;;;;;;;;5060156;28;20049;-86
2024/01/11 00:31:46;;;;;;;73.95;28.63;;;;;;;;;;5061236;28;20057;-86
2024/01/11 00:34:13;;;;;;;69.90;29.17;;;;;;;;;;5047864;28;20077;-86
2024/01/11 00:36:40;;;;;;;71.72;30.17;;;;;;;;;;5046445;28;20136;-86
2024/01/11 00:39:08;;;;;;;73.95;29.13;;;;;;;;;;5060000;28;20050;-86
2024/01/11 00:41:36;;;;;;;71.85;29.42;;;;;;;;;;5060928;28;20103;-86
2024/01/11 00:44:03;;;;;;;74.38;28.52;;;;;;;;;;5051598;28;20084;-86
2024/01/11 00:46:31;;;;;;;70.07;28.05;;;;;;;;;;5059943;28;20132;-86
2024/01/11 00:48:58;;;;;;;72.38;28.05;;;;;;;;;;5046169;28;20041;-86
2024/01/11 00:51:25;;;;;;;74.25;28.80;;;;;;;;;;5046747;28;20413;-85
2024/01/11 00:53:53;;;;;;;67.80;26.92;;;;;;;;;;5043886;28;20110;-86
2024/01/11 00:56:21;;;;;;;73.88;28.50;;;;;;;;;;5059834;28;20079;-86
2024/01/11 00:58:48;;;;;;;69.90;27.65;;;;;;;;;;5060958;28;20056;-86
2024/01/11 01:01:15;;;;;;;75.15;28.77;;;;;;;;;;5046308;28;20501;-86
2024/01/11 01:03:42;;;;;;;67.35;26.92;;;;;;;;;;5038101;28;20096;-85
2024/01/11 01:06:10;;;;;;;68.78;27.48;;;;;;;;;;5047015;28;20110;-86
2024/01/11 01:08:37;;;;;;;69.55;27.75;;;;;;;;;;5046262;28;20107;-86
2024/01/11 01:11:04;;;;;;;62.65;25.52;;;;;;;;;;5046263;28;20049;-86
2024/01/11 01:13:32;;;;;;;65.22;26.08;;;;;;;;;;5039935;28;20053;-86
2024/01/11 01:15:59;;;;;;;73.43;28.25;;;;;;;;;;5037482;28;20053;-87
2024/01/11 01:18:26;;;;;;;83.07;29.58;;;;;;;;;;5064349;28;20084;-86
2024/01/11 01:20:53;;;;;;;73.22;28.17;;;;;;;;;;5065202;28;20053;-86
2024/01/11 01:23:20;;;;;;;70.63;28.70;;;;;;;;;;5046057;28;20049;-86
2024/01/11 01:25:48;;;;;;;72.03;28.75;;;;;;;;;;5044394;28;20059;-86
2024/01/11 01:28:15;;;;;;;65.35;27.13;;;;;;;;;;5059428;28;20049;-86
2024/01/11 01:30:42;;;;;;;69.05;26.80;;;;;;;;;;5059942;28;20494;-86
2024/01/11 01:33:10;;;;;;;79.40;28.65;;;;;;;;;;5045861;28;20072;-86
2024/01/11 01:35:37;;;;;;;70.68;27.20;;;;;;;;;;5045444;28;20049;-86
2024/01/11 01:38:05;;;;;;;67.03;26.50;;;;;;;;;;5062901;28;20055;-86
2024/01/11 01:40:32;;;;;;;73.90;29.75;;;;;;;;;;5046604;28;20057;-86
2024/01/11 01:42:59;;;;;;;67.45;28.02;;;;;;;;;;5043374;28;20382;-86
2024/01/11 01:45:27;;;;;;;57.38;25.45;;;;;;;;;;5058710;28;20107;-86
2024/01/11 01:47:54;;;;;;;65.85;27.35;;;;;;;;;;5058691;28;20048;-86
2024/01/11 01:50:22;;;;;;;69.20;27.20;;;;;;;;;;5058815;28;20049;-86
2024/01/11 01:52:51;;;;;;;64.05;27.45;;;;;;;;;;5066796;28;20048;-86
2024/01/11 01:55:19;;;;;;;64.07;25.67;;;;;;;;;;5058911;28;20049;-86
2024/01/11 01:57:48;;;;;;;71.18;27.27;;;;;;;;;;5057063;28;20061;-86
2024/01/11 02:00:15;;;;;;;69.40;27.80;;;;;;;;;;5032540;28;20049;-86
2024/01/11 02:02:44;;;;;;;65.20;26.88;;;;;;;;;;5044399;28;20049;-86
2024/01/11 02:05:13;;;;;;;72.10;26.02;;;;;;;;;;5038163;28;20103;-86
2024/01/11 02:07:41;;;;;;;61.42;24.98;;;;;;;;;;5044658;28;20053;-86
2024/01/11 02:10:08;;;;;;;72.30;26.42;;;;;;;;;;5054025;28;20108;-86
2024/01/11 02:12:39;;;;;;;64.00;24.00;;;;;;;;;;5021860;28;20049;-86
2024/01/11 02:15:06;;;;;;;57.50;25.67;;;;;;;;;;5057870;28;20049;-86
2024/01/11 02:17:34;;;;;;;65.40;26.33;;;;;;;;;;5042476;28;20120;-86
2024/01/11 02:20:03;;;;;;;71.18;25.08;;;;;;;;;;5061007;28;20144;-86
2024/01/11 02:22:39;;;;;;;63.22;25.75;;;;;;;;;;5045833;28;20045;-86
2024/01/11 02:25:06;;;;;;;69.00;26.35;;;;;;;;;;5033858;28;20049;-86
2024/01/11 02:27:54;;;;;;;62.00;25.73;;;;;;;;;;5057854;28;20076;-86
2024/01/11 02:30:22;;;;;;;57.88;23.83;;;;;;;;;;5034081;28;20073;-86
2024/01/11 02:32:50;;;;;;;70.60;25.92;;;;;;;;;;5077912;28;20077;-86
2024/01/11 02:35:18;;;;;;;61.42;25.20;;;;;;;;;;5049765;28;20102;-87
2024/01/11 02:37:47;;;;;;;61.20;24.98;;;;;;;;;;5027886;28;20107;-86
2024/01/11 02:40:15;;;;;;;53.92;24.23;;;;;;;;;;5057946;28;20049;-86
2024/01/11 02:42:42;;;;;;;68.40;24.42;;;;;;;;;;5057822;28;20050;-86
2024/01/11 02:45:11;;;;;;;59.38;25.30;;;;;;;;;;5054050;28;20398;-86
2024/01/11 02:47:38;;;;;;;62.58;24.70;;;;;;;;;;5046749;28;20048;-86
2024/01/11 02:50:07;;;;;;;69.55;24.88;;;;;;;;;;5057742;28;20049;-86
2024/01/11 02:52:34;;;;;;;67.97;25.75;;;;;;;;;;5057400;28;20064;-86
2024/01/11 02:55:02;;;;;;;63.63;24.92;;;;;;;;;;5049193;28;20414;-86
2024/01/11 02:57:29;;;;;;;64.97;24.25;;;;;;;;;;5041746;28;20099;-86
2024/01/11 02:59:56;;;;;;;64.97;26.33;;;;;;;;;;5041895;28;20107;-86
2024/01/11 03:02:24;;;;;;;63.50;23.73;;;;;;;;;;5057573;28;20052;-86
2024/01/11 03:04:51;;;;;;;71.68;26.30;;;;;;;;;;5042632;28;20077;-86
2024/01/11 03:07:19;;;;;;;57.33;24.55;;;;;;;;;;5032765;28;20491;-86
2024/01/11 03:09:46;;;;;;;72.75;24.92;;;;;;;;;;5040470;28;20053;-86
2024/01/11 03:12:13;;;;;;;67.72;25.15;;;;;;;;;;5044200;28;20095;-86
2024/01/11 03:14:40;;;;;;;74.97;25.08;;;;;;;;;;5043339;28;20048;-86
2024/01/11 03:17:08;;;;;;;60.10;25.23;;;;;;;;;;5057314;28;20042;-86
2024/01/11 03:19:40;;;;;;;59.17;24.48;;;;;;;;;;5064804;28;20532;-86
2024/01/11 03:22:07;;;;;;;45.88;18.55;;;;;;;;;;5033285;28;20409;-86
2024/01/11 03:24:39;;;;;;;59.80;23.77;;;;;;;;;;5056754;28;20494;-86
2024/01/11 03:27:06;;;;;;;48.15;18.25;;;;;;;;;;5032806;28;20049;-86
2024/01/11 03:29:33;;;;;;;56.45;23.75;;;;;;;;;;5057315;28;20379;-86
2024/01/11 03:32:01;;;;;;;59.90;24.40;;;;;;;;;;5059839;28;20048;-86
2024/01/11 03:34:28;;;;;;;66.65;26.13;;;;;;;;;;5034683;28;20050;-86
2024/01/11 03:36:55;;;;;;;58.22;22.55;;;;;;;;;;5047155;28;20059;-86
2024/01/11 03:39:22;;;;;;;64.53;25.33;;;;;;;;;;5064064;28;20056;-86
2024/01/11 03:41:50;;;;;;;63.00;25.70;;;;;;;;;;5039923;28;20117;-85
2024/01/11 03:44:17;;;;;;;61.15;24.48;;;;;;;;;;5048618;28;20421;-86
2024/01/11 03:46:44;;;;;;;62.80;24.20;;;;;;;;;;5081304;28;20105;-86
2024/01/11 03:49:11;;;;;;;61.38;24.23;;;;;;;;;;5048146;28;20057;-86
2024/01/11 03:51:39;;;;;;;65.15;24.95;;;;;;;;;;5048030;28;20049;-86
2024/01/11 03:54:06;;;;;;;62.03;22.48;;;;;;;;;;5050529;28;20424;-86
2024/01/11 03:56:33;;;;;;;56.83;23.42;;;;;;;;;;5051937;28;20448;-86
2024/01/11 03:59:00;;;;;;;54.85;23.77;;;;;;;;;;5039321;28;20045;-86
2024/01/11 04:01:28;;;;;;;71.43;25.75;;;;;;;;;;5032098;28;20518;-86
2024/01/11 04:03:55;;;;;;;60.47;23.42;;;;;;;;;;5065876;28;20045;-87
2024/01/11 04:06:26;;;;;;;60.15;22.70;;;;;;;;;;5044218;28;20064;-86
2024/01/11 04:08:54;;;;;;;58.28;22.48;;;;;;;;;;5048930;28;20045;-86
2024/01/11 04:11:22;;;;;;;62.55;24.67;;;;;;;;;;5051528;28;20063;-86
2024/01/11 04:13:49;;;;;;;58.58;23.20;;;;;;;;;;5048170;28;20055;-86
2024/01/11 04:16:16;;;;;;;65.45;23.35;;;;;;;;;;5053996;28;20080;-86
2024/01/11 04:18:44;;;;;;;59.83;23.67;;;;;;;;;;5049779;28;20063;-86
2024/01/11 04:21:23;;;;;;;59.72;25.27;;;;;;;;;;5064677;28;20057;-86
2024/01/11 04:23:50;;;;;;;59.22;24.73;;;;;;;;;;5050359;28;20041;-86
2024/01/11 04:26:18;;;;;;;61.22;24.52;;;;;;;;;;5051428;28;20049;-86
2024/01/11 04:28:46;;;;;;;57.35;24.80;;;;;;;;;;5049728;28;20059;-86
2024/01/11 04:31:14;;;;;;;59.60;24.27;;;;;;;;;;5047945;28;20042;-86
2024/01/11 04:33:41;;;;;;;59.88;24.10;;;;;;;;;;5064705;28;20054;-86
2024/01/11 04:36:09;;;;;;;57.30;22.60;;;;;;;;;;5052546;28;20048;-86
2024/01/11 04:38:37;;;;;;;60.28;24.20;;;;;;;;;;5052484;28;20099;-87
2024/01/11 04:41:08;;;;;;;51.60;21.55;;;;;;;;;;5040117;28;20046;-86
2024/01/11 04:43:42;;;;;;;62.03;24.63;;;;;;;;;;5062870;28;20108;-87
2024/01/11 04:46:20;;;;;;;62.97;23.65;;;;;;;;;;5037631;28;20085;-86
2024/01/11 04:48:48;;;;;;;56.35;22.58;;;;;;;;;;5061589;28;20045;-86
2024/01/11 04:51:16;;;;;;;55.33;22.73;;;;;;;;;;5036784;28;20182;-86
2024/01/11 04:53:45;;;;;;;64.28;26.05;;;;;;;;;;5040544;28;20040;-87
2024/01/11 04:56:14;;;;;;;73.75;24.85;;;;;;;;;;5059631;28;20046;-86
2024/01/11 04:58:42;;;;;;;58.58;23.02;;;;;;;;;;5052223;28;20506;-87
2024/01/11 05:01:13;;;;;;;59.55;23.33;;;;;;;;;;5060601;28;20061;-85
2024/01/11 05:03:41;;;;;;;54.53;19.73;;;;;;;;;;5054718;28;20038;-86
2024/01/11 05:06:09;;;;;;;67.68;24.98;;;;;;;;;;5046343;28;20053;-87
2024/01/11 05:08:36;;;;;;;70.60;24.55;;;;;;;;;;5046783;28;20049;-86
2024/01/11 05:11:03;;;;;;;62.28;25.08;;;;;;;;;;5035829;28;20050;-86
2024/01/11 05:13:31;;;;;;;53.45;22.35;;;;;;;;;;5055355;28;20060;-87
2024/01/11 05:15:58;;;;;;;59.78;23.10;;;;;;;;;;5044424;28;20104;-87
2024/01/11 05:18:25;;;;;;;56.20;24.20;;;;;;;;;;5044036;28;20414;-87
2024/01/11 05:20:52;;;;;;;63.75;22.65;;;;;;;;;;5061822;28;20146;-86
2024/01/11 05:23:20;;;;;;;56.38;23.80;;;;;;;;;;5046130;28;20049;-87
2024/01/11 05:25:47;;;;;;;55.75;23.35;;;;;;;;;;5045031;28;20504;-88
2024/01/11 05:28:15;;;;;;;52.90;23.13;;;;;;;;;;5059626;28;20049;-87
2024/01/11 05:30:42;;;;;;;54.90;22.25;;;;;;;;;;5043833;28;20091;-86
2024/01/11 05:33:09;;;;;;;71.90;24.17;;;;;;;;;;5059203;28;20132;-86
2024/01/11 05:35:37;;;;;;;61.47;24.75;;;;;;;;;;5059099;28;20064;-87
2024/01/11 05:38:04;;;;;;;55.40;22.35;;;;;;;;;;5059678;28;20049;-86
2024/01/11 05:40:32;;;;;;;59.17;24.17;;;;;;;;;;5059608;28;20080;-86
2024/01/11 05:42:59;;;;;;;61.20;23.88;;;;;;;;;;5045855;28;20482;-86
2024/01/11 05:45:26;;;;;;;57.38;23.50;;;;;;;;;;5046116;28;20044;-86
2024/01/11 05:48:12;;;;;;;58.22;23.25;;;;;;;;;;5035852;28;20057;-86
2024/01/11 05:50:39;;;;;;;58.63;23.13;;;;;;;;;;5059411;28;20056;-86
2024/01/11 05:53:07;;;;;;;46.53;21.65;;;;;;;;;;5047096;28;20041;-86
2024/01/11 05:55:34;;;;;;;57.95;22.17;;;;;;;;;;5045686;28;20045;-87
2024/01/11 05:58:01;;;;;;;55.40;22.85;;;;;;;;;;5042225;28;20056;-86
2024/01/11 06:00:28;;;;;;;59.50;23.25;;;;;;;;;;5043901;28;20057;-86
2024/01/11 06:02:56;;;;;;;54.95;23.02;;;;;;;;;;5061638;28;20520;-86
2024/01/11 06:05:24;;;;;;;60.92;22.75;;;;;;;;;;5039593;28;20128;-86
2024/01/11 06:07:51;;;;;;;57.50;23.40;;;;;;;;;;5042826;28;20059;-87
2024/01/11 06:10:18;;;;;;;53.60;22.42;;;;;;;;;;5054882;28;20091;-86
2024/01/11 06:12:45;;;;;;;52.97;22.50;;;;;;;;;;5044664;28;20082;-87
2024/01/11 06:15:13;;;;;;;53.38;22.55;;;;;;;;;;5054361;28;20022;-85
2024/01/11 06:17:40;;;;;;;53.20;22.08;;;;;;;;;;5076831;28;20108;-87
2024/01/11 06:20:09;;;;;;;50.10;22.52;;;;;;;;;;5042231;28;20053;-87
2024/01/11 06:22:37;;;;;;;69.43;25.80;;;;;;;;;;5040587;28;20053;-87
2024/01/11 06:25:04;;;;;;;64.05;24.77;;;;;;;;;;5046146;28;20053;-87
2024/01/11 06:27:32;;;;;;;63.63;24.98;;;;;;;;;;5045431;28;20068;-86
2024/01/11 06:29:59;;;;;;;63.45;24.42;;;;;;;;;;5043447;28;20486;-87
2024/01/11 06:32:26;;;;;;;65.50;25.80;;;;;;;;;;5051821;28;20057;-87
2024/01/11 06:34:54;;;;;;;80.95;28.45;;;;;;;;;;5041063;28;20553;-86
2024/01/11 06:37:22;;;;;;;72.80;26.40;;;;;;;;;;5058629;28;20115;-87
2024/01/11 06:39:50;;;;;;;62.35;25.20;;;;;;;;;;5041586;28;20049;-86
2024/01/11 06:42:17;;;;;;;64.28;25.58;;;;;;;;;;5058091;28;20493;-87
2024/01/11 06:44:46;;;;;;;63.17;23.95;;;;;;;;;;5057626;28;20051;-87
2024/01/11 06:47:13;;;;;;;58.97;24.45;;;;;;;;;;5053229;28;20137;-86
2024/01/11 06:49:41;;;;;;;58.42;24.33;;;;;;;;;;5039514;28;20500;-87
2024/01/11 06:52:08;;;;;;;59.13;22.85;;;;;;;;;;5042082;28;20486;-87
2024/01/11 06:54:36;;;;;;;70.35;24.05;;;;;;;;;;5057836;28;20073;-87
2024/01/11 06:57:03;;;;;;;57.97;22.92;;;;;;;;;;5050329;28;20057;-87
2024/01/11 06:59:30;;;;;;;61.15;24.02;;;;;;;;;;5057998;28;20513;-87
2024/01/11 07:01:57;;;;;;;55.78;23.65;;;;;;;;;;5060479;28;20049;-87
2024/01/11 07:04:25;;;;;;;62.40;23.77;;;;;;;;;;5044482;28;20052;-87
2024/01/11 07:06:52;;;;;;;66.50;25.90;;;;;;;;;;5045391;28;20053;-87
2024/01/11 07:09:20;;;;;;;62.53;25.08;;;;;;;;;;5045147;28;20044;-87
2024/01/11 07:11:47;;;;;;;68.10;25.27;;;;;;;;;;5043298;28;20052;-87
2024/01/11 07:14:14;;;;;;;75.35;24.45;;;;;;;;;;5057812;28;20072;-87
2024/01/11 07:16:42;;;;;;;64.72;25.40;;;;;;;;;;5042651;28;20410;-87
2024/01/11 07:19:10;;;;;;;57.75;23.50;;;;;;;;;;5045378;28;20437;-87
2024/01/11 07:21:37;;;;;;;59.25;22.52;;;;;;;;;;5044353;28;20049;-87
2024/01/11 07:24:04;;;;;;;63.58;24.90;;;;;;;;;;5057437;28;20077;-87
2024/01/11 07:26:32;;;;;;;60.75;24.80;;;;;;;;;;5057258;28;20050;-87
2024/01/11 07:29:00;;;;;;;60.58;23.55;;;;;;;;;;5060418;28;20136;-87
2024/01/11 07:31:28;;;;;;;59.90;22.83;;;;;;;;;;5065876;28;20049;-87
2024/01/11 07:33:55;;;;;;;60.97;24.00;;;;;;;;;;5048474;28;20118;-87
2024/01/11 07:36:23;;;;;;;60.85;23.35;;;;;;;;;;5055740;28;20048;-87
2024/01/11 07:38:50;;;;;;;66.78;24.45;;;;;;;;;;5042586;28;20045;-87
2024/01/11 07:41:17;;;;;;;63.05;24.40;;;;;;;;;;5057437;28;20064;-87
2024/01/11 07:43:44;;;;;;;81.85;30.88;;;;;;;;;;5057846;28;20410;-86
2024/01/11 07:46:20;;;;;;;79.47;30.30;;;;;;;;;;5045014;28;20052;-87
2024/01/11 07:49:02;;;;;;;76.70;27.98;;;;;;;;;;5036954;28;20049;-87
2024/01/11 07:51:29;;;;;;;76.95;30.70;;;;;;;;;;5045438;28;20088;-87
2024/01/11 07:53:57;;;;;;;80.95;28.63;;;;;;;;;;5041467;28;20044;-87
2024/01/11 07:56:24;;;;;;;71.63;30.00;;;;;;;;;;5057405;28;20453;-87
2024/01/11 07:58:51;;;;;;;76.00;27.80;;;;;;;;;;5058927;28;20398;-87
2024/01/11 08:01:19;;;;;;;76.40;29.25;;;;;;;;;;5031506;28;20402;-87
2024/01/11 08:03:47;;;;;;;68.13;24.98;;;;;;;;;;5042934;28;20056;-87
2024/01/11 08:06:14;;;;;;;69.00;25.90;;;;;;;;;;5045090;28;20041;-87
2024/01/11 08:08:42;;;;;;;72.57;26.75;;;;;;;;;;5044470;28;20063;-87
2024/01/11 08:11:13;;;;;;;75.03;27.52;;;;;;;;;;5058669;28;20065;-87
2024/01/11 08:13:41;;;;;;;65.15;24.58;;;;;;;;;;5058726;28;20053;-87
2024/01/11 08:16:09;;;;;;;68.30;27.52;;;;;;;;;;5045008;28;20481;-87
2024/01/11 08:18:37;;;;;;;66.35;26.10;;;;;;;;;;5036724;28;20057;-87
2024/01/11 08:21:09;;;;;;;57.13;25.38;;;;;;;;;;5048369;28;20045;-87
2024/01/11 08:23:36;;;;;;;;;;;;;;;;;;5049797;28;20099;-87
2024/01/11 08:26:03;;;;;;;60.08;24.33;;;;;;;;;;5036680;28;19968;-87
2024/01/11 08:28:32;;;;;;;65.85;26.20;;;;;;;;;;5061868;28;20445;-87
2024/01/11 08:30:59;;;;;;;58.40;25.45;;;;;;;;;;5048482;28;20045;-87
2024/01/11 08:33:27;;;;;;;60.42;25.92;;;;;;;;;;5047510;28;20083;-87
2024/01/11 08:35:55;;;;;;;59.95;26.17;;;;;;;;;;5045727;28;20053;-87
2024/01/11 08:38:22;;;;;;;65.03;26.83;;;;;;;;;;5060655;28;20085;-87
2024/01/11 08:40:49;;;;;;;62.92;26.92;;;;;;;;;;5062170;28;20048;-88
2024/01/11 08:43:17;;;;;;;65.20;27.20;;;;;;;;;;5047465;28;20045;-87
2024/01/11 08:45:44;;;;;;;80.03;30.80;;;;;;;;;;5058404;28;20033;-87
2024/01/11 08:48:11;;;;;;;72.07;28.77;;;;;;;;;;5078198;28;20046;-87
2024/01/11 08:50:39;;;;;;;66.38;26.50;;;;;;;;;;5036029;28;20418;-86
2024/01/11 08:53:06;;;;;;;60.42;25.70;;;;;;;;;;5048167;28;20044;-87
2024/01/11 08:55:34;;;;;;;72.38;28.63;;;;;;;;;;5048109;28;20128;-87
2024/01/11 08:58:01;;;;;;;84.90;34.42;;;;;;;;;;5027596;28;20107;-87
2024/01/11 09:00:28;;;;;;;87.88;35.80;;;;;;;;;;5060082;28;20049;-87
2024/01/11 09:02:56;;;;;;;78.45;31.73;;;;;;;;;;5057479;28;20140;-88
2024/01/11 09:05:23;;;;;;;78.55;29.38;;;;;;;;;;5036323;28;20049;-88
2024/01/11 09:07:50;;;;;;;68.47;28.98;;;;;;;;;;5046107;28;20125;-88
2024/01/11 09:10:20;;;;;;;74.05;30.38;;;;;;;;;;5049398;28;20572;-87
2024/01/11 09:12:48;;;;;;;113.57;47.17;;;;;;;;;;5046489;28;20048;-87
2024/01/11 09:15:15;;;;;;;155.85;65.88;;;;;;;;;;5066324;28;20040;-88
2024/01/11 09:17:42;;;;;;;78.45;34.10;;;;;;;;;;5038207;28;20564;-88
2024/01/11 09:20:14;;;;;;;80.40;32.53;;;;;;;;;;5046422;28;20144;-88
2024/01/11 09:22:41;;;;;;;75.30;30.50;;;;;;;;;;5046387;28;20413;-88
2024/01/11 09:25:09;;;;;;;67.43;29.20;;;;;;;;;;5059918;28;20046;-87
2024/01/11 09:27:36;;;;;;;60.28;25.83;;;;;;;;;;5067716;28;20057;-87
2024/01/11 09:30:04;;;;;;;73.45;29.23;;;;;;;;;;5035119;28;20049;-88
2024/01/11 09:32:31;;;;;;;129.57;45.10;;;;;;;;;;5041882;28;20050;-88
2024/01/11 09:34:59;;;;;;;114.47;40.40;;;;;;;;;;5046496;28;20489;-88
2024/01/11 09:37:26;;;;;;;121.78;42.63;;;;;;;;;;5047246;28;20052;-87
2024/01/11 09:39:54;;;;;;;111.00;40.10;;;;;;;;;;5026595;28;20054;-88
2024/01/11 09:42:21;;;;;;;86.13;34.75;;;;;;;;;;5037657;28;20060;-88
2024/01/11 09:44:48;;;;;;;68.93;29.02;;;;;;;;;;5044114;28;20107;-88
2024/01/11 09:47:17;;;;;;;66.95;27.10;;;;;;;;;;5049931;28;20057;-88
2024/01/11 09:49:45;;;;;;;88.43;32.83;;;;;;;;;;5060098;28;20041;-87
2024/01/11 09:52:14;;;;;;;104.82;39.47;;;;;;;;;;5046506;28;20500;-88
2024/01/11 09:54:42;;;;;;;107.40;39.00;;;;;;;;;;5045232;28;20045;-88
2024/01/11 09:57:10;;;;;;;105.22;38.97;;;;;;;;;;5059089;28;20506;-88
2024/01/11 09:59:37;;;;;;;105.68;38.65;;;;;;;;;;5059356;28;20053;-87
2024/01/11 10:02:08;;;;;;;100.75;37.67;;;;;;;;;;5084394;28;20049;-87
2024/01/11 10:04:37;;;;;;;99.40;37.17;;;;;;;;;;5029281;28;20474;-88
2024/01/11 10:07:06;;;;;;;86.88;35.65;;;;;;;;;;5030166;28;20075;-87
2024/01/11 10:09:33;;;;;;;85.30;34.08;;;;;;;;;;5039083;28;20053;-88
2024/01/11 10:12:01;;;;;;;82.60;33.13;;;;;;;;;;5028808;28;20071;-88
2024/01/11 10:14:28;;;;;;;87.47;33.63;;;;;;;;;;5046544;28;20125;-88
2024/01/11 10:16:55;;;;;;;82.63;34.03;;;;;;;;;;5044432;28;20057;-87
2024/01/11 10:19:22;;;;;;;77.75;31.90;;;;;;;;;;5043261;28;20085;-88
2024/01/11 10:21:50;;;;;;;79.15;31.92;;;;;;;;;;5060368;28;20049;-88
2024/01/11 10:24:22;;;;;;;88.15;31.98;;;;;;;;;;5045421;28;20074;-87
2024/01/11 10:26:49;;;;;;;74.80;31.80;;;;;;;;;;5036732;28;20481;-87
2024/01/11 10:29:17;;;;;;;69.40;31.38;;;;;;;;;;5035783;28;20434;-88
2024/01/11 10:31:45;;;;;;;83.30;33.00;;;;;;;;;;5040472;28;20103;-88
2024/01/11 10:34:12;;;;;;;71.18;32.00;;;;;;;;;;5035413;28;20049;-88
2024/01/11 10:36:40;;;;;;;66.85;29.63;;;;;;;;;;5038689;28;20051;-87
2024/01/11 10:39:09;;;;;;;66.82;28.90;;;;;;;;;;5054564;28;20106;-87
2024/01/11 10:41:47;;;;;;;68.65;28.80;;;;;;;;;;5045896;28;20504;-88
2024/01/11 10:44:22;;;;;;;74.80;29.73;;;;;;;;;;5022186;28;20442;-88
2024/01/11 10:46:50;;;;;;;70.80;30.35;;;;;;;;;;5049334;28;20053;-87
2024/01/11 10:49:21;;;;;;;68.22;27.95;;;;;;;;;;5047951;28;20514;-87
2024/01/11 10:51:54;;;;;;;72.03;30.15;;;;;;;;;;5028369;28;20053;-88
2024/01/11 10:54:23;;;;;;;71.75;29.60;;;;;;;;;;5045783;28;20080;-87
2024/01/11 10:56:52;;;;;;;67.18;29.85;;;;;;;;;;5039528;28;20049;-88
2024/01/11 10:59:25;;;;;;;77.10;32.65;;;;;;;;;;5034900;28;20050;-88
2024/01/11 11:01:55;;;;;;;;;;;;;;;;;;5039303;28;20404;-88
2024/01/11 11:04:23;;;;;;;82.90;35.85;;;;;;;;;;5029888;28;19921;-87
2024/01/11 11:06:57;;;;;;;96.68;43.03;;;;;;;;;;5041811;28;20054;-87
2024/01/11 11:09:27;;;;;;;94.78;43.78;;;;;;;;;;5032628;28;20054;-87
2024/01/11 11:11:57;;;;;;;78.20;37.00;;;;;;;;;;5034969;28;20100;-87
2024/01/11 11:14:25;;;;;;;85.00;39.20;;;;;;;;;;5041273;28;20128;-87
2024/01/11 11:16:53;;;;;;;86.53;38.08;;;;;;;;;;5043381;28;20053;-87
2024/01/11 11:19:21;;;;;;;65.25;31.00;;;;;;;;;;5049789;28;20133;-87
2024/01/11 11:21:50;;;;;;;53.45;28.25;;;;;;;;;;5040991;28;20062;-86
2024/01/11 11:24:18;;;;;;;59.85;28.92;;;;;;;;;;5031146;28;20048;-86
2024/01/11 11:26:46;;;;;;;51.92;27.75;;;;;;;;;;5041052;28;20084;-87
2024/01/11 11:29:16;;;;;;;44.10;25.52;;;;;;;;;;5040620;28;20045;-87
2024/01/11 11:31:47;;;;;;;43.13;25.30;;;;;;;;;;5040800;28;20096;-86
2024/01/11 11:34:16;;;;;;;40.67;23.77;;;;;;;;;;5043630;28;20044;-86
2024/01/11 11:36:46;;;;;;;42.58;24.90;;;;;;;;;;5039982;28;20451;-86
2024/01/11 11:39:14;;;;;;;36.97;23.40;;;;;;;;;;5032915;28;20045;-85
2024/01/11 11:41:42;;;;;;;40.05;22.77;;;;;;;;;;5034083;28;20130;-86
2024/01/11 11:44:15;;;;;;;38.90;23.42;;;;;;;;;;5038238;28;20045;-85
2024/01/11 11:46:45;;;;;;;35.70;20.83;;;;;;;;;;5041307;28;20068;-85
2024/01/11 11:49:13;;;;;;;34.03;23.83;;;;;;;;;;5023471;28;20076;-85
2024/01/11 11:51:41;;;;;;;32.10;21.00;;;;;;;;;;5044658;28;20138;-84
2024/01/11 11:54:14;;;;;;;32.80;20.48;;;;;;;;;;5040905;28;20057;-85
2024/01/11 11:56:42;;;;;;;35.28;20.35;;;;;;;;;;5060342;28;20095;-86
2024/01/11 11:59:10;;;;;;;27.60;19.33;;;;;;;;;;5060713;28;20053;-86
2024/01/11 12:01:38;;;;;;;35.40;20.55;;;;;;;;;;5060515;28;20046;-86
2024/01/11 12:04:05;;;;;;;31.92;21.25;;;;;;;;;;5036795;28;20057;-85
2024/01/11 12:06:33;;;;;;;28.80;18.60;;;;;;;;;;5060304;28;20045;-85
2024/01/11 12:09:01;;;;;;;32.58;20.13;;;;;;;;;;5046524;28;20627;-86
2024/01/11 12:11:28;;;;;;;31.52;20.42;;;;;;;;;;5047376;28;20057;-86
2024/01/11 12:13:57;;;;;;;31.45;20.23;;;;;;;;;;5044579;28;20059;-86
2024/01/11 12:16:25;;;;;;;37.28;21.48;;;;;;;;;;5044707;28;20045;-86
2024/01/11 12:18:53;;;;;;;35.67;20.95;;;;;;;;;;5051424;28;20058;-87
2024/01/11 12:21:20;;;;;;;33.00;20.20;;;;;;;;;;5043469;28;20041;-86
2024/01/11 12:23:48;;;;;;;30.48;19.60;;;;;;;;;;5045780;28;20516;-86
2024/01/11 12:26:21;;;;;;;27.98;18.23;;;;;;;;;;5037703;28;20052;-86
2024/01/11 12:28:50;;;;;;;29.52;18.80;;;;;;;;;;5043436;28;20153;-87
2024/01/11 12:31:19;;;;;;;30.58;19.25;;;;;;;;;;5048565;28;20041;-86
2024/01/11 12:33:47;;;;;;;29.10;18.63;;;;;;;;;;5063037;28;20048;-88
2024/01/11 12:36:15;;;;;;;27.63;18.13;;;;;;;;;;5047902;28;20049;-87
2024/01/11 12:38:49;;;;;;;29.08;18.23;;;;;;;;;;5060792;28;20071;-88
2024/01/11 12:41:20;;;;;;;26.75;18.20;;;;;;;;;;5047957;28;20055;-87
2024/01/11 12:43:48;;;;;;;24.13;17.27;;;;;;;;;;5045904;28;20061;-88
2024/01/11 12:46:15;;;;;;;27.58;16.58;;;;;;;;;;5060059;28;20049;-88
2024/01/11 12:48:43;;;;;;;23.10;16.40;;;;;;;;;;5043745;28;20049;-89
2024/01/11 12:51:10;;;;;;;24.25;16.13;;;;;;;;;;5037629;28;20045;-88
2024/01/11 12:53:50;;;;;;;20.90;14.93;;;;;;;;;;5058526;28;20064;-88
2024/01/11 12:56:18;;;;;;;22.90;14.38;;;;;;;;;;5044421;28;20557;-87
2024/01/11 12:58:46;;;;;;;22.05;15.05;;;;;;;;;;5060646;28;20045;-88
2024/01/11 13:01:14;;;;;;;24.52;14.80;;;;;;;;;;5046689;28;20053;-88
2024/01/11 13:03:45;;;;;;;18.77;12.82;;;;;;;;;;5045920;28;20045;-87
2024/01/11 13:06:13;;;;;;;20.00;12.65;;;;;;;;;;5059680;28;20045;-89
2024/01/11 13:08:41;;;;;;;22.50;13.65;;;;;;;;;;5052012;28;20096;-89
2024/01/11 13:11:09;;;;;;;22.08;13.65;;;;;;;;;;5059996;28;20054;-89
2024/01/11 13:13:36;;;;;;;22.88;14.07;;;;;;;;;;5059341;28;20084;-89
2024/01/11 13:16:11;;;;;;;21.10;13.32;;;;;;;;;;5046855;28;20045;-88
2024/01/11 13:18:38;;;;;;;23.73;13.32;;;;;;;;;;5045978;28;20083;-88
2024/01/11 13:21:09;;;;;;;23.73;13.98;;;;;;;;;;5043739;28;20092;-88
2024/01/11 13:23:37;;;;;;;26.92;13.60;;;;;;;;;;5059386;28;20413;-88
2024/01/11 13:26:05;;;;;;;23.38;14.02;;;;;;;;;;5035791;28;20049;-88
2024/01/11 13:28:34;;;;;;;23.75;13.63;;;;;;;;;;5043378;28;20140;-87
2024/01/11 13:31:02;;;;;;;24.02;13.27;;;;;;;;;;5062525;28;20045;-87
2024/01/11 13:33:29;;;;;;;24.17;13.30;;;;;;;;;;5045851;28;20045;-87
2024/01/11 13:35:57;;;;;;;22.10;13.45;;;;;;;;;;5044112;28;20049;-87
2024/01/11 13:38:24;;;;;;;29.23;13.63;;;;;;;;;;5043316;28;20050;-87
2024/01/11 13:40:52;;;;;;;30.40;15.88;;;;;;;;;;5059039;28;20425;-87
2024/01/11 13:43:19;;;;;;;27.83;16.15;;;;;;;;;;5042372;28;20054;-87
2024/01/11 13:45:47;;;;;;;27.98;15.25;;;;;;;;;;5041218;28;20505;-87
2024/01/11 13:48:14;;;;;;;28.38;15.07;;;;;;;;;;5034893;28;20509;-86
2024/01/11 13:50:41;;;;;;;27.77;15.40;;;;;;;;;;5062651;28;20049;-87
2024/01/11 13:53:09;;;;;;;26.40;14.68;;;;;;;;;;5060030;28;20144;-87
2024/01/11 13:55:39;;;;;;;26.10;15.02;;;;;;;;;;5042926;28;20107;-86
2024/01/11 13:58:07;;;;;;;24.42;15.25;;;;;;;;;;5058529;28;20517;-87
2024/01/11 14:00:35;;;;;;;23.50;13.40;;;;;;;;;;5042920;28;20056;-87
2024/01/11 14:03:04;;;;;;;22.30;12.93;;;;;;;;;;5046382;28;20135;-87
2024/01/11 14:05:33;;;;;;;24.38;14.23;;;;;;;;;;5046217;28;20084;-87
2024/01/11 14:08:01;;;;;;;22.10;13.50;;;;;;;;;;5042980;28;20537;-87
2024/01/11 14:10:28;;;;;;;22.58;12.68;;;;;;;;;;5043262;28;20461;-87
2024/01/11 14:12:56;;;;;;;23.42;12.98;;;;;;;;;;5060388;28;20104;-87
2024/01/11 14:15:24;;;;;;;24.70;13.18;;;;;;;;;;5045028;28;20513;-86
2024/01/11 14:17:52;;;;;;;22.25;11.82;;;;;;;;;;5043793;28;20049;-87
2024/01/11 14:20:20;;;;;;;20.98;12.63;;;;;;;;;;5042688;28;20061;-87
2024/01/11 14:22:51;;;;;;;22.23;13.25;;;;;;;;;;5056675;28;20057;-87